createdAt,value
2019-04-07T00:00:41.154Z,9.23
2019-04-07T00:01:41.208Z,9.45
2019-04-07T00:02:41.268Z,9.39
2019-04-07T00:03:41.127Z,9.25
2019-04-07T00:04:41.423Z,9.50
2019-04-07T00:05:41.541Z,9.32
2019-04-07T00:06:41.599Z,9.20
2019-04-07T00:07:41.434Z,9.24
2019-04-07T00:08:41.108Z,9.25
2019-04-07T00:09:41.097Z,9.18
2019-04-07T00:10:41.390Z,9.27
2019-04-07T00:11:41.073Z,9.25
2019-04-07T00:12:41.267Z,9.31
2019-04-07T00:13:41.387Z,9.39
2019-04-07T00:14:41.052Z,9.31
2019-04-07T00:15:41.534Z,9.39
2019-04-07T00:16:41.036Z,9.30
2019-04-07T00:17:41.058Z,9.38
2019-04-07T00:18:41.632Z,9.45
2019-04-07T00:19:41.016Z,9.35
2019-04-07T00:20:42.007Z,9.34
2019-04-07T00:21:41.037Z,9.30
2019-04-07T00:22:41.003Z,9.39
2019-04-07T00:23:40.999Z,9.38
2019-04-07T00:24:41.630Z,9.42
2019-04-07T00:25:41.453Z,9.45
2019-04-07T00:26:40.969Z,9.27
2019-04-07T00:27:40.963Z,9.27
2019-04-07T00:28:40.959Z,9.15
2019-04-07T00:29:40.949Z,9.06
2019-04-07T00:30:40.955Z,8.99
2019-04-07T00:31:41.518Z,8.83
2019-04-07T00:32:41.382Z,8.63
2019-04-07T00:33:41.365Z,8.69
2019-04-07T00:34:41.487Z,8.58
2019-04-07T00:35:40.952Z,8.66
2019-04-07T00:36:40.916Z,8.66
2019-04-07T00:37:40.899Z,8.79
2019-04-07T00:38:49.548Z,8.81
2019-04-07T00:40:45.440Z,8.63
2019-04-07T00:41:45.442Z,8.66
2019-04-07T00:42:45.555Z,8.65
2019-04-07T00:43:45.990Z,8.65
2019-04-07T00:44:45.483Z,8.57
2019-04-07T00:45:45.922Z,8.51
2019-04-07T00:46:45.331Z,8.62
2019-04-07T00:47:45.314Z,8.55
2019-04-07T00:48:45.308Z,8.58
2019-04-07T00:49:45.301Z,8.51
2019-04-07T00:50:46.022Z,8.60
2019-04-07T00:51:45.306Z,8.57
2019-04-07T00:52:45.341Z,8.72
2019-04-07T00:53:45.440Z,8.72
2019-04-07T00:54:45.874Z,8.69
2019-04-07T00:55:45.259Z,8.78
2019-04-07T00:56:45.515Z,8.78
2019-04-07T00:57:45.629Z,8.72
2019-04-07T00:58:45.674Z,8.68
2019-04-07T00:59:45.264Z,8.72
2019-04-07T01:00:45.229Z,8.68
2019-04-07T01:01:45.222Z,8.65
2019-04-07T01:02:45.257Z,8.65
2019-04-07T01:03:45.601Z,8.55
2019-04-07T01:04:45.199Z,8.72
2019-04-07T01:05:45.805Z,8.63
2019-04-07T01:06:45.206Z,8.54
2019-04-07T01:07:45.217Z,8.48
2019-04-07T01:08:45.690Z,8.48
2019-04-07T01:09:45.335Z,8.50
2019-04-07T01:10:45.157Z,8.53
2019-04-07T01:11:45.162Z,8.45
2019-04-07T01:12:45.743Z,8.47
2019-04-07T01:13:45.226Z,8.32
2019-04-07T01:14:45.146Z,8.37
2019-04-07T01:15:45.149Z,8.47
2019-04-07T01:16:45.619Z,8.51
2019-04-07T01:17:45.711Z,8.53
2019-04-07T01:18:45.093Z,8.55
2019-04-07T01:19:45.472Z,8.53
2019-04-07T01:20:45.187Z,8.53
2019-04-07T01:21:45.732Z,8.29
2019-04-07T01:22:45.247Z,8.33
2019-04-07T01:23:45.160Z,8.39
2019-04-07T01:24:45.241Z,8.29
2019-04-07T01:25:45.683Z,8.25
2019-04-07T01:26:45.041Z,8.26
2019-04-07T01:27:45.498Z,8.17
2019-04-07T01:28:45.603Z,8.20
2019-04-07T01:29:45.420Z,8.33
2019-04-07T01:30:45.012Z,8.28
2019-04-07T01:31:45.144Z,8.28
2019-04-07T01:32:45.517Z,8.30
2019-04-07T01:33:44.997Z,8.37
2019-04-07T01:34:44.988Z,8.29
2019-04-07T01:35:49.170Z,8.47
2019-04-07T01:36:45.473Z,8.29
2019-04-07T01:37:44.962Z,8.32
2019-04-07T01:38:45.452Z,8.48
2019-04-07T01:39:44.961Z,8.40
2019-04-07T01:40:45.440Z,8.40
2019-04-07T01:41:44.944Z,8.29
2019-04-07T01:42:45.579Z,8.28
2019-04-07T01:43:44.936Z,8.07
2019-04-07T01:44:44.912Z,7.94
2019-04-07T01:45:45.712Z,7.90
2019-04-07T01:46:44.901Z,7.93
2019-04-07T01:47:44.897Z,7.93
2019-04-07T01:48:44.893Z,8.14
2019-04-07T01:49:45.144Z,7.94
2019-04-07T01:50:45.148Z,8.10
2019-04-07T01:51:45.468Z,7.93
2019-04-07T01:52:44.858Z,7.96
2019-04-07T01:53:45.424Z,8.02
2019-04-07T01:54:44.846Z,7.97
2019-04-07T01:55:45.521Z,8.04
2019-04-07T01:56:44.963Z,8.12
2019-04-07T01:57:45.276Z,8.12
2019-04-07T01:58:44.814Z,8.22
2019-04-07T01:59:45.447Z,8.11
2019-04-07T02:00:44.794Z,8.21
2019-04-07T02:01:45.070Z,8.30
2019-04-07T02:02:44.794Z,8.26
2019-04-07T02:03:44.775Z,8.32
2019-04-07T02:04:44.763Z,8.21
2019-04-07T02:05:56.804Z,8.08
2019-04-07T02:06:45.342Z,8.21
2019-04-07T02:07:44.770Z,8.10
2019-04-07T02:08:45.366Z,7.99
2019-04-07T02:09:44.740Z,7.94
2019-04-07T02:10:44.757Z,8.10
2019-04-07T02:11:45.207Z,7.96
2019-04-07T02:12:44.713Z,7.92
2019-04-07T02:13:45.100Z,7.85
2019-04-07T02:14:44.723Z,7.84
2019-04-07T02:15:44.721Z,7.81
2019-04-07T02:16:45.217Z,7.84
2019-04-07T02:17:44.781Z,7.85
2019-04-07T02:18:45.383Z,7.77
2019-04-07T02:19:44.890Z,7.85
2019-04-07T02:20:44.657Z,8.00
2019-04-07T02:21:44.978Z,8.10
2019-04-07T02:22:44.635Z,8.00
2019-04-07T02:23:51.837Z,8.07
2019-04-07T02:25:49.117Z,8.00
2019-04-07T02:26:49.717Z,8.00
2019-04-07T02:27:49.563Z,7.99
2019-04-07T02:28:49.573Z,8.04
2019-04-07T02:29:49.058Z,7.99
2019-04-07T02:30:49.187Z,7.97
2019-04-07T02:31:49.947Z,8.02
2019-04-07T02:32:49.061Z,7.85
2019-04-07T02:33:49.740Z,7.89
2019-04-07T02:34:49.126Z,7.75
2019-04-07T02:35:49.015Z,7.82
2019-04-07T02:36:49.943Z,7.66
2019-04-07T02:37:48.997Z,7.72
2019-04-07T02:38:49.995Z,7.77
2019-04-07T02:39:49.019Z,7.85
2019-04-07T02:40:49.014Z,7.84
2019-04-07T02:41:48.977Z,7.92
2019-04-07T02:42:48.988Z,7.84
2019-04-07T02:43:48.957Z,7.96
2019-04-07T02:44:49.398Z,7.90
2019-04-07T02:45:49.298Z,7.90
2019-04-07T02:46:48.931Z,7.85
2019-04-07T02:47:48.939Z,7.79
2019-04-07T02:48:48.965Z,7.74
2019-04-07T02:49:50.035Z,7.66
2019-04-07T02:50:48.923Z,7.71
2019-04-07T02:51:49.793Z,7.59
2019-04-07T02:52:49.190Z,7.66
2019-04-07T03:10:31.099Z,7.94
2019-04-07T03:11:31.199Z,7.92
2019-04-07T03:13:35.777Z,8.04
2019-04-07T03:14:45.666Z,8.03
2019-04-07T03:17:02.703Z,8.15
2019-04-07T03:18:00.550Z,8.11
2019-04-07T03:20:07.181Z,8.12
2019-04-07T03:21:07.656Z,8.18
2019-04-07T03:23:03.730Z,8.10
2019-04-07T03:24:03.951Z,8.07
2019-04-07T03:25:03.760Z,8.08
2019-04-07T03:26:04.244Z,8.14
2019-04-07T03:27:04.001Z,8.14
2019-04-07T03:28:03.452Z,8.12
2019-04-07T03:29:03.585Z,8.25
2019-04-07T03:30:04.090Z,8.25
2019-04-07T03:31:04.092Z,8.20
2019-04-07T03:32:05.725Z,8.22
2019-04-07T03:33:06.106Z,8.15
2019-04-07T03:34:05.977Z,8.18
2019-04-07T03:35:15.036Z,8.21
2019-04-07T03:37:33.113Z,8.10
2019-04-07T03:38:19.195Z,8.17
2019-04-07T03:39:19.222Z,8.07
2019-04-07T03:40:19.934Z,8.08
2019-04-07T03:41:19.664Z,8.12
2019-04-07T03:42:19.126Z,8.03
2019-04-07T03:43:19.627Z,7.96
2019-04-07T03:44:19.108Z,8.11
2019-04-07T03:45:20.248Z,8.08
2019-04-07T03:46:19.101Z,8.17
2019-04-07T03:47:19.105Z,8.08
2019-04-07T03:48:19.126Z,8.00
2019-04-07T03:49:20.001Z,8.00
2019-04-07T03:50:19.043Z,7.94
2019-04-07T03:51:19.124Z,7.93
2019-04-07T03:52:19.447Z,7.82
2019-04-07T03:53:20.026Z,7.74
2019-04-07T03:54:19.013Z,7.74
2019-04-07T03:55:19.326Z,7.74
2019-04-07T03:56:19.942Z,7.58
2019-04-07T03:57:19.677Z,7.47
2019-04-07T03:58:19.546Z,7.53
2019-04-07T03:59:18.971Z,7.56
2019-04-07T04:00:19.048Z,7.62
2019-04-07T04:01:19.074Z,7.45
2019-04-07T04:02:19.670Z,7.50
2019-04-07T04:03:19.358Z,7.34
2019-04-07T04:04:19.101Z,7.27
2019-04-07T04:05:19.055Z,7.26
2019-04-07T04:06:19.398Z,7.29
2019-04-07T04:07:28.404Z,7.34
2019-04-07T04:08:18.923Z,7.22
2019-04-07T04:09:18.894Z,7.23
2019-04-07T04:10:19.292Z,7.09
2019-04-07T04:11:18.873Z,7.01
2019-04-07T04:12:18.886Z,6.97
2019-04-07T04:13:19.986Z,7.09
2019-04-07T04:14:18.859Z,6.95
2019-04-07T04:15:18.962Z,6.95
2019-04-07T04:16:18.898Z,6.87
2019-04-07T04:17:19.400Z,7.04
2019-04-07T04:18:18.826Z,6.95
2019-04-07T04:19:18.932Z,6.97
2019-04-07T04:20:19.669Z,6.90
2019-04-07T04:21:19.733Z,6.83
2019-04-07T04:22:18.816Z,6.84
2019-04-07T04:23:19.760Z,6.90
2019-04-07T04:24:19.873Z,6.97
2019-04-07T04:25:19.151Z,6.91
2019-04-07T04:26:18.761Z,6.76
2019-04-07T04:27:18.851Z,6.69
2019-04-07T04:28:19.348Z,6.89
2019-04-07T04:29:18.877Z,6.86
2019-04-07T04:30:18.970Z,6.83
2019-04-07T04:31:19.532Z,6.86
2019-04-07T04:32:18.984Z,6.68
2019-04-07T04:33:18.732Z,6.65
2019-04-07T04:34:19.262Z,6.56
2019-04-07T04:35:18.988Z,6.68
2019-04-07T04:36:18.924Z,6.72
2019-04-07T04:37:34.333Z,6.87
2019-04-07T04:38:18.694Z,6.81
2019-04-07T04:39:20.303Z,6.71
2019-04-07T04:40:19.081Z,6.80
2019-04-07T04:41:19.016Z,7.07
2019-04-07T04:42:18.647Z,6.98
2019-04-07T04:43:18.621Z,6.94
2019-04-07T04:44:18.738Z,6.91
2019-04-07T04:45:18.612Z,6.87
2019-04-07T04:46:18.717Z,6.81
2019-04-07T04:47:19.113Z,6.77
2019-04-07T04:48:19.691Z,6.59
2019-04-07T04:49:19.023Z,6.63
2019-04-07T04:50:18.574Z,6.63
2019-04-07T04:51:18.563Z,6.76
2019-04-07T04:52:18.595Z,6.87
2019-04-07T04:53:18.613Z,6.84
2019-04-07T04:54:19.319Z,6.83
2019-04-07T04:55:18.928Z,6.97
2019-04-07T04:56:18.696Z,6.89
2019-04-07T04:57:18.535Z,6.98
2019-04-07T04:58:19.307Z,7.12
2019-04-07T04:59:18.529Z,6.97
2019-04-07T05:00:18.731Z,7.04
2019-04-07T05:01:18.705Z,7.16
2019-04-07T05:02:18.953Z,7.23
2019-04-07T05:03:19.394Z,7.29
2019-04-07T05:04:18.525Z,7.35
2019-04-07T05:05:18.466Z,7.44
2019-04-07T05:06:18.489Z,7.44
2019-04-07T05:07:19.056Z,7.49
2019-04-07T05:08:18.419Z,7.47
2019-04-07T05:09:18.421Z,7.59
2019-04-07T05:10:19.232Z,7.45
2019-04-07T05:11:18.878Z,7.50
2019-04-07T05:12:18.416Z,7.41
2019-04-07T05:13:27.270Z,7.42
2019-04-07T05:15:23.101Z,7.44
2019-04-07T05:16:23.085Z,7.34
2019-04-07T05:17:23.174Z,7.19
2019-04-07T05:18:23.011Z,7.20
2019-04-07T05:19:22.835Z,7.31
2019-04-07T05:20:22.946Z,7.19
2019-04-07T05:21:22.887Z,7.24
2019-04-07T05:22:22.933Z,7.27
2019-04-07T05:23:23.104Z,7.29
2019-04-07T05:24:22.806Z,7.27
2019-04-07T05:25:22.875Z,7.19
2019-04-07T05:26:23.932Z,7.34
2019-04-07T05:27:22.913Z,7.44
2019-04-07T05:28:22.800Z,7.27
2019-04-07T05:29:22.744Z,7.40
2019-04-07T05:30:22.744Z,7.47
2019-04-07T05:31:23.207Z,7.40
2019-04-07T05:32:23.276Z,7.49
2019-04-07T05:33:22.721Z,7.63
2019-04-07T05:34:23.106Z,7.63
2019-04-07T05:35:22.760Z,7.74
2019-04-07T05:36:22.695Z,7.69
2019-04-07T05:37:23.033Z,7.60
2019-04-07T05:38:31.753Z,7.69
2019-04-07T05:40:29.393Z,7.84
2019-04-07T05:41:28.405Z,7.82
2019-04-07T05:42:27.869Z,8.07
2019-04-07T05:43:27.716Z,8.08
2019-04-07T05:45:59.848Z,7.78
2019-04-07T05:46:59.699Z,7.89
2019-04-07T05:48:00.096Z,7.90
2019-04-07T05:49:00.458Z,8.00
2019-04-07T05:50:02.723Z,8.08
2019-04-07T05:51:00.781Z,8.17
2019-04-07T05:52:04.205Z,8.17
2019-04-07T05:52:59.613Z,8.04
2019-04-07T05:54:00.298Z,8.10
2019-04-07T05:54:59.588Z,8.04
2019-04-07T05:55:59.574Z,8.11
2019-04-07T05:57:01.443Z,7.99
2019-04-07T05:57:59.636Z,7.96
2019-04-07T05:58:59.563Z,8.02
2019-04-07T06:00:00.363Z,7.90
2019-04-07T06:03:30.811Z,8.37
2019-04-07T06:04:30.506Z,8.40
2019-04-07T06:05:31.775Z,8.33
2019-04-07T06:06:41.719Z,8.36
2019-04-07T06:07:31.794Z,8.29
2019-04-07T06:08:36.079Z,8.39
2019-04-07T06:09:33.443Z,8.42
2019-04-07T06:10:30.601Z,8.48
2019-04-07T06:11:33.105Z,8.48
2019-04-07T06:12:30.164Z,8.48
2019-04-07T06:13:30.204Z,8.48
2019-04-07T06:14:30.355Z,8.37
2019-04-07T06:15:30.357Z,8.44
2019-04-07T06:16:30.240Z,8.42
2019-04-07T06:17:30.324Z,8.68
2019-04-07T06:18:33.360Z,8.71
2019-04-07T06:19:30.329Z,8.79
2019-04-07T06:20:30.238Z,8.79
2019-04-07T06:21:30.130Z,8.86
2019-04-07T06:22:30.522Z,8.91
2019-04-07T06:23:30.876Z,8.90
2019-04-07T06:24:32.508Z,8.88
2019-04-07T06:25:33.089Z,9.12
2019-04-07T06:26:30.075Z,9.12
2019-04-07T06:27:30.607Z,9.04
2019-04-07T06:28:30.089Z,9.23
2019-04-07T06:29:30.188Z,9.18
2019-04-07T06:30:32.162Z,9.35
2019-04-07T06:31:32.147Z,9.32
2019-04-07T06:32:30.086Z,9.32
2019-04-07T06:33:30.513Z,9.30
2019-04-07T06:34:30.044Z,9.42
2019-04-07T06:35:30.017Z,9.48
2019-04-07T06:36:30.791Z,9.52
2019-04-07T06:37:30.798Z,9.56
2019-04-07T06:38:34.256Z,9.56
2019-04-07T06:39:31.961Z,9.63
2019-04-07T06:40:30.568Z,9.73
2019-04-07T06:41:31.428Z,9.66
2019-04-07T06:42:32.417Z,9.66
2019-04-07T06:43:30.271Z,9.64
2019-04-07T06:44:30.133Z,9.61
2019-04-07T06:45:30.563Z,9.85
2019-04-07T06:46:30.575Z,9.79
2019-04-07T06:47:31.332Z,9.76
2019-04-07T06:48:30.597Z,9.82
2019-04-07T06:49:29.930Z,9.91
2019-04-07T06:50:29.938Z,9.88
2019-04-07T06:51:31.080Z,9.88
2019-04-07T06:52:30.220Z,9.96
2019-04-07T06:53:30.181Z,9.94
2019-04-07T06:54:29.926Z,10.01
2019-04-07T06:55:32.703Z,10.00
2019-04-07T06:56:32.194Z,10.06
2019-04-07T06:57:29.977Z,10.06
2019-04-07T06:58:29.949Z,10.22
2019-04-07T06:59:29.889Z,10.12
2019-04-07T07:00:30.064Z,10.17
2019-04-07T07:01:30.639Z,10.14
2019-04-07T07:02:31.648Z,10.19
2019-04-07T07:03:33.547Z,10.18
2019-04-07T07:04:30.063Z,10.22
2019-04-07T07:05:30.065Z,10.26
2019-04-07T07:06:29.840Z,10.25
2019-04-07T07:07:29.818Z,10.26
2019-04-07T07:08:45.206Z,10.34
2019-04-07T07:10:43.662Z,10.40
2019-04-07T07:11:35.388Z,10.36
2019-04-07T07:12:38.730Z,10.39
2019-04-07T07:13:36.378Z,10.39
2019-04-07T07:14:41.554Z,10.36
2019-04-07T07:15:36.219Z,10.43
2019-04-07T07:16:34.943Z,10.36
2019-04-07T07:17:34.422Z,10.44
2019-04-07T07:18:34.229Z,10.51
2019-04-07T07:19:34.689Z,10.52
2019-04-07T07:20:34.295Z,10.47
2019-04-07T07:21:38.716Z,10.55
2019-04-07T07:22:34.518Z,10.58
2019-04-07T07:23:34.276Z,10.60
2019-04-07T07:24:34.833Z,10.63
2019-04-07T07:25:34.823Z,10.62
2019-04-07T07:26:35.439Z,10.70
2019-04-07T07:27:34.172Z,10.60
2019-04-07T07:28:34.763Z,10.70
2019-04-07T07:29:34.178Z,10.71
2019-04-07T07:30:34.891Z,10.70
2019-04-07T07:31:34.773Z,10.71
2019-04-07T07:32:37.007Z,10.80
2019-04-07T07:33:34.429Z,10.76
2019-04-07T07:34:34.139Z,10.83
2019-04-07T07:35:34.326Z,10.86
2019-04-07T07:36:34.955Z,10.86
2019-04-07T07:37:34.147Z,10.83
2019-04-07T07:38:34.580Z,10.83
2019-04-07T07:39:34.133Z,10.98
2019-04-07T07:40:35.121Z,10.96
2019-04-07T07:41:34.507Z,11.02
2019-04-07T07:42:34.151Z,11.03
2019-04-07T07:43:34.222Z,11.07
2019-04-07T07:44:37.312Z,11.09
2019-04-07T07:45:34.105Z,11.20
2019-04-07T07:46:34.402Z,11.24
2019-04-07T07:47:34.072Z,11.27
2019-04-07T07:48:34.064Z,11.20
2019-04-07T07:49:36.880Z,11.28
2019-04-07T07:50:34.687Z,11.31
2019-04-07T07:51:34.944Z,11.25
2019-04-07T07:52:34.196Z,11.29
2019-04-07T07:53:34.067Z,11.34
2019-04-07T07:54:35.127Z,11.24
2019-04-07T07:55:37.484Z,11.21
2019-04-07T07:56:48.287Z,11.28
2019-04-07T07:58:39.707Z,11.35
2019-04-07T07:59:48.413Z,11.46
2019-04-07T08:01:46.243Z,11.49
2019-04-07T08:02:44.328Z,11.64
2019-04-07T08:03:55.300Z,11.75
2019-04-07T08:05:57.875Z,11.78
2019-04-07T08:06:58.022Z,11.90
2019-04-07T08:09:09.794Z,11.93
2019-04-07T08:10:01.780Z,12.02
2019-04-07T08:11:57.911Z,12.11
2019-04-07T08:12:57.508Z,11.97
2019-04-07T08:13:57.877Z,11.97
2019-04-07T08:14:58.542Z,11.94
2019-04-07T08:16:06.405Z,11.94
2019-04-07T08:18:12.466Z,12.02
2019-04-07T08:19:02.806Z,12.13
2019-04-07T08:20:02.375Z,12.13
2019-04-07T08:21:02.207Z,12.16
2019-04-07T08:22:03.055Z,12.15
2019-04-07T08:23:02.617Z,12.20
2019-04-07T08:24:02.552Z,12.19
2019-04-07T08:25:02.424Z,12.16
2019-04-07T08:26:02.689Z,12.13
2019-04-07T08:27:02.042Z,12.15
2019-04-07T08:28:04.428Z,12.24
2019-04-07T08:29:05.618Z,12.23
2019-04-07T08:30:02.674Z,12.33
2019-04-07T08:31:01.998Z,12.41
2019-04-07T08:32:11.079Z,12.42
2019-04-07T08:34:06.511Z,12.39
2019-04-07T08:35:06.881Z,12.44
2019-04-07T08:36:09.978Z,12.49
2019-04-07T08:37:06.442Z,12.48
2019-04-07T08:38:06.414Z,12.49
2019-04-07T08:39:18.539Z,12.49
2019-04-07T08:40:07.668Z,12.52
2019-04-07T08:41:10.168Z,12.49
2019-04-07T08:42:09.774Z,12.51
2019-04-07T08:43:07.161Z,12.57
2019-04-07T08:44:07.062Z,12.56
2019-04-07T08:45:06.375Z,12.54
2019-04-07T08:46:06.377Z,12.66
2019-04-07T08:47:06.614Z,12.67
2019-04-07T08:48:06.425Z,12.77
2019-04-07T08:49:06.564Z,12.81
2019-04-07T08:50:07.193Z,12.96
2019-04-07T08:51:06.931Z,12.92
2019-04-07T08:52:09.805Z,12.95
2019-04-07T08:53:06.339Z,12.77
2019-04-07T08:54:06.352Z,12.89
2019-04-07T08:55:07.257Z,12.95
2019-04-07T08:56:08.216Z,13.03
2019-04-07T08:57:06.998Z,13.11
2019-04-07T08:58:06.673Z,13.06
2019-04-07T08:59:10.026Z,13.14
2019-04-07T09:00:06.320Z,13.22
2019-04-07T09:01:06.453Z,13.20
2019-04-07T09:02:06.408Z,13.09
2019-04-07T09:03:11.405Z,13.03
2019-04-07T09:04:06.713Z,13.11
2019-04-07T09:05:06.610Z,12.99
2019-04-07T09:06:06.325Z,12.93
2019-04-07T09:07:06.321Z,13.11
2019-04-07T09:08:07.309Z,12.96
2019-04-07T09:09:07.834Z,13.02
2019-04-07T09:10:07.085Z,12.96
2019-04-07T09:11:06.282Z,13.09
2019-04-07T09:12:07.065Z,13.04
2019-04-07T09:13:08.339Z,13.07
2019-04-07T09:14:07.739Z,13.11
2019-04-07T09:15:10.043Z,13.06
2019-04-07T09:16:06.292Z,13.22
2019-04-07T09:17:06.266Z,13.27
2019-04-07T09:18:06.262Z,13.30
2019-04-07T09:19:08.326Z,13.36
2019-04-07T09:20:09.069Z,13.40
2019-04-07T09:21:06.241Z,13.51
2019-04-07T09:22:06.340Z,13.62
2019-04-07T09:23:06.951Z,13.52
2019-04-07T09:24:07.096Z,13.52
2019-04-07T09:25:08.497Z,13.49
2019-04-07T09:26:10.145Z,13.55
2019-04-07T09:27:06.277Z,13.55
2019-04-07T09:28:06.414Z,13.55
2019-04-07T09:29:06.444Z,13.46
2019-04-07T09:30:08.971Z,13.37
2019-04-07T09:31:06.324Z,13.47
2019-04-07T09:32:06.570Z,13.49
2019-04-07T09:33:06.362Z,13.59
2019-04-07T09:34:06.875Z,13.74
2019-04-07T09:35:07.260Z,13.67
2019-04-07T09:36:06.892Z,13.69
2019-04-07T09:37:06.905Z,13.59
2019-04-07T09:38:08.087Z,13.56
2019-04-07T09:39:06.784Z,13.65
2019-04-07T09:40:06.828Z,13.62
2019-04-07T09:41:06.271Z,13.74
2019-04-07T09:42:06.578Z,13.59
2019-04-07T09:43:06.178Z,13.52
2019-04-07T09:44:06.233Z,13.62
2019-04-07T09:45:09.559Z,13.47
2019-04-07T09:46:09.357Z,13.59
2019-04-07T09:47:06.331Z,13.74
2019-04-07T09:48:06.444Z,13.80
2019-04-07T09:49:06.146Z,13.88
2019-04-07T09:50:06.742Z,13.84
2019-04-07T09:51:07.286Z,13.76
2019-04-07T09:52:10.224Z,13.79
2019-04-07T09:53:06.136Z,13.83
2019-04-07T09:54:06.130Z,13.95
2019-04-07T09:55:08.341Z,13.87
2019-04-07T09:56:08.829Z,13.73
2019-04-07T09:57:07.327Z,13.88
2019-04-07T09:58:09.337Z,13.96
2019-04-07T09:59:06.750Z,13.95
2019-04-07T10:00:07.610Z,13.95
2019-04-07T10:01:07.257Z,13.96
2019-04-07T10:02:06.709Z,14.09
2019-04-07T10:03:09.805Z,14.14
2019-04-07T10:04:07.262Z,14.10
2019-04-07T10:05:06.093Z,14.20
2019-04-07T10:06:09.875Z,14.09
2019-04-07T10:07:09.191Z,14.09
2019-04-07T10:09:45.890Z,14.09
2019-04-07T10:10:45.584Z,14.09
2019-04-07T10:11:46.188Z,14.07
2019-04-07T10:12:45.895Z,14.12
2019-04-07T10:13:46.345Z,14.27
2019-04-07T10:14:46.584Z,14.17
2019-04-07T10:15:45.644Z,14.06
2019-04-07T10:16:45.808Z,14.07
2019-04-07T10:17:45.588Z,14.17
2019-04-07T10:18:45.959Z,14.24
2019-04-07T10:19:45.750Z,14.27
2019-04-07T10:20:45.544Z,14.17
2019-04-07T10:21:45.674Z,14.29
2019-04-07T10:22:46.166Z,14.19
2019-04-07T10:23:46.458Z,14.09
2019-04-07T10:24:45.951Z,14.16
2019-04-07T10:25:45.566Z,14.32
2019-04-07T10:26:45.507Z,14.38
2019-04-07T10:27:45.482Z,14.49
2019-04-07T10:28:46.154Z,14.42
2019-04-07T10:29:45.483Z,14.44
2019-04-07T10:30:45.981Z,14.43
2019-04-07T10:31:46.314Z,14.50
2019-04-07T10:32:46.279Z,14.44
2019-04-07T10:33:46.061Z,14.52
2019-04-07T10:34:46.074Z,14.62
2019-04-07T10:35:45.648Z,14.71
2019-04-07T10:36:45.464Z,14.69
2019-04-07T10:37:55.164Z,14.64
2019-04-07T10:39:51.037Z,14.65
2019-04-07T10:40:51.206Z,14.71
2019-04-07T10:41:51.217Z,14.52
2019-04-07T10:42:59.862Z,14.49
2019-04-07T10:44:45.830Z,14.61
2019-04-07T10:45:44.839Z,14.60
2019-04-07T10:46:53.851Z,14.62
2019-04-07T10:48:48.943Z,14.53
2019-04-07T10:49:57.913Z,14.64
2019-04-07T10:50:49.253Z,14.74
2019-04-07T10:51:48.957Z,14.74
2019-04-07T10:52:48.907Z,14.65
2019-04-07T10:53:49.338Z,14.72
2019-04-07T10:54:49.258Z,14.68
2019-04-07T10:55:49.491Z,14.78
2019-04-07T10:56:49.759Z,14.78
2019-04-07T10:57:49.389Z,14.75
2019-04-07T10:58:48.871Z,14.78
2019-04-07T10:59:49.313Z,14.78
2019-04-07T11:00:50.884Z,14.81
2019-04-07T11:01:49.088Z,14.78
2019-04-07T11:02:52.802Z,14.75
2019-04-07T11:03:49.728Z,14.84
2019-04-07T11:04:49.191Z,14.91
2019-04-07T11:05:49.231Z,14.88
2019-04-07T11:06:49.496Z,14.84
2019-04-07T11:07:49.326Z,14.94
2019-04-07T11:08:49.085Z,14.88
2019-04-07T11:11:29.204Z,15.09
2019-04-07T11:12:30.328Z,15.19
2019-04-07T11:13:29.880Z,15.23
2019-04-07T11:15:57.612Z,15.38
2019-04-07T11:16:29.569Z,15.33
2019-04-07T11:17:29.253Z,15.38
2019-04-07T11:18:29.320Z,15.21
2019-04-07T11:19:29.163Z,15.06
2019-04-07T11:20:29.930Z,15.30
2019-04-07T11:21:29.097Z,15.48
2019-04-07T11:22:29.645Z,15.49
2019-04-07T11:23:29.444Z,15.52
2019-04-07T11:24:31.159Z,15.33
2019-04-07T11:25:29.550Z,15.36
2019-04-07T11:26:29.891Z,15.49
2019-04-07T11:27:29.493Z,15.49
2019-04-07T11:28:29.178Z,15.54
2019-04-07T11:29:29.558Z,15.48
2019-04-07T11:30:29.120Z,15.54
2019-04-07T11:31:29.145Z,15.48
2019-04-07T11:32:29.050Z,15.46
2019-04-07T11:33:29.078Z,15.52
2019-04-07T11:34:29.286Z,15.52
2019-04-07T11:35:30.767Z,15.59
2019-04-07T11:36:29.826Z,15.60
2019-04-07T11:37:29.227Z,15.63
2019-04-07T11:38:29.199Z,15.49
2019-04-07T11:39:29.130Z,15.33
2019-04-07T11:40:32.955Z,15.33
2019-04-07T11:41:29.072Z,15.60
2019-04-07T11:42:29.482Z,15.68
2019-04-07T11:43:29.053Z,15.76
2019-04-07T11:44:29.323Z,15.68
2019-04-07T11:45:29.024Z,15.70
2019-04-07T11:46:29.509Z,15.60
2019-04-07T11:47:29.826Z,15.63
2019-04-07T11:48:29.459Z,15.81
2019-04-07T11:49:29.071Z,15.85
2019-04-07T11:50:29.691Z,15.75
2019-04-07T11:51:29.110Z,15.82
2019-04-07T11:52:29.156Z,15.68
2019-04-07T11:53:29.471Z,15.70
2019-04-07T11:54:29.574Z,15.81
2019-04-07T11:55:30.103Z,15.78
2019-04-07T11:56:29.641Z,15.64
2019-04-07T11:57:29.058Z,15.70
2019-04-07T11:58:32.322Z,15.68
2019-04-07T11:59:29.071Z,15.79
2019-04-07T12:02:01.930Z,15.79
2019-04-07T12:03:01.357Z,15.72
2019-04-07T12:04:01.354Z,15.68
2019-04-07T12:06:52.684Z,15.57
2019-04-07T12:07:41.146Z,15.67
2019-04-07T12:08:40.562Z,15.63
2019-04-07T12:09:41.228Z,15.74
2019-04-07T12:10:40.443Z,15.54
2019-04-07T12:11:40.537Z,15.41
2019-04-07T12:12:40.461Z,15.45
2019-04-07T12:13:42.735Z,15.51
2019-04-07T12:14:40.439Z,15.60
2019-04-07T12:15:40.463Z,15.56
2019-04-07T12:16:41.256Z,15.48
2019-04-07T12:17:42.320Z,15.38
2019-04-07T12:18:40.734Z,15.27
2019-04-07T12:19:40.823Z,15.30
2019-04-07T12:20:40.784Z,15.33
2019-04-07T12:21:40.606Z,15.23
2019-04-07T12:22:41.702Z,15.45
2019-04-07T12:23:41.295Z,15.43
2019-04-07T12:24:41.208Z,15.33
2019-04-07T12:25:40.447Z,15.39
2019-04-07T12:26:42.473Z,15.48
2019-04-07T12:27:43.006Z,15.49
2019-04-07T12:28:41.136Z,15.66
2019-04-07T12:29:40.435Z,15.79
2019-04-07T12:30:40.384Z,15.76
2019-04-07T12:31:40.471Z,15.86
2019-04-07T12:32:41.421Z,15.85
2019-04-07T12:33:40.419Z,15.88
2019-04-07T12:34:44.047Z,15.96
2019-04-07T12:35:40.411Z,15.89
2019-04-07T12:36:40.897Z,15.79
2019-04-07T12:37:42.326Z,15.84
2019-04-07T12:38:43.173Z,15.84
2019-04-07T12:39:40.713Z,15.85
2019-04-07T12:40:40.394Z,15.89
2019-04-07T12:41:40.373Z,15.92
2019-04-07T12:42:40.374Z,16.07
2019-04-07T12:43:40.442Z,16.12
2019-04-07T12:44:40.364Z,16.15
2019-04-07T12:45:40.381Z,16.33
2019-04-07T12:46:40.756Z,16.40
2019-04-07T12:47:41.113Z,16.40
2019-04-07T12:48:41.048Z,16.30
2019-04-07T12:49:44.391Z,16.01
2019-04-07T12:50:40.377Z,16.22
2019-04-07T12:51:40.382Z,16.01
2019-04-07T12:52:40.965Z,16.01
2019-04-07T12:53:41.130Z,15.93
2019-04-07T12:54:42.963Z,15.79
2019-04-07T12:55:40.521Z,15.82
2019-04-07T12:56:40.569Z,15.89
2019-04-07T12:57:40.387Z,15.76
2019-04-07T12:58:43.972Z,15.96
2019-04-07T12:59:41.090Z,15.97
2019-04-07T13:00:54.468Z,16.06
2019-04-07T13:01:43.819Z,16.26
2019-04-07T13:02:40.349Z,16.35
2019-04-07T13:03:40.796Z,16.27
2019-04-07T13:04:40.773Z,16.35
2019-04-07T13:05:49.832Z,16.18
2019-04-07T13:07:48.387Z,15.89
2019-04-07T13:08:46.760Z,15.89
2019-04-07T13:09:54.852Z,15.82
2019-04-07T13:11:50.444Z,15.82
2019-04-07T13:12:59.387Z,15.76
2019-04-07T13:14:46.036Z,15.89
2019-04-07T13:15:49.347Z,15.93
2019-04-07T13:16:45.946Z,15.97
2019-04-07T13:17:46.242Z,15.94
2019-04-07T13:18:46.500Z,16.15
2019-04-07T13:19:48.950Z,16.23
2019-04-07T13:20:49.216Z,16.11
2019-04-07T13:21:46.850Z,16.18
2019-04-07T13:22:45.801Z,16.25
2019-04-07T13:23:46.051Z,16.30
2019-04-07T13:24:48.498Z,16.23
2019-04-07T13:25:45.776Z,16.30
2019-04-07T13:26:45.875Z,16.18
2019-04-07T13:27:45.804Z,16.20
2019-04-07T13:28:45.805Z,16.50
2019-04-07T13:29:46.507Z,16.52
2019-04-07T13:30:45.853Z,16.49
2019-04-07T13:31:45.975Z,16.52
2019-04-07T13:32:51.235Z,16.50
2019-04-07T13:33:45.853Z,16.52
2019-04-07T13:34:45.820Z,16.45
2019-04-07T13:35:45.807Z,16.33
2019-04-07T13:36:46.314Z,16.38
2019-04-07T13:37:45.824Z,16.34
2019-04-07T13:38:45.896Z,16.23
2019-04-07T13:39:46.403Z,16.23
2019-04-07T13:40:47.035Z,16.35
2019-04-07T13:41:47.603Z,16.56
2019-04-07T13:42:45.803Z,16.88
2019-04-07T13:43:45.752Z,16.90
2019-04-07T13:44:45.956Z,16.95
2019-04-07T13:45:46.970Z,16.86
2019-04-07T13:46:45.781Z,16.86
2019-04-07T13:47:45.980Z,16.78
2019-04-07T13:48:49.532Z,16.90
2019-04-07T13:49:45.859Z,16.81
2019-04-07T13:50:45.953Z,16.88
2019-04-07T13:51:47.249Z,16.83
2019-04-07T13:52:46.419Z,16.75
2019-04-07T13:53:46.425Z,16.92
2019-04-07T13:54:45.760Z,16.98
2019-04-07T13:55:45.786Z,17.04
2019-04-07T13:56:49.898Z,17.04
2019-04-07T13:57:45.777Z,17.04
2019-04-07T13:58:46.422Z,16.88